Main page
METAR-TAF:

METAR-TAF

Airports :

Sofia Airport

Sofia, Bulgaria

latitude: 42-39N, longitude: 023-23E, elevation: 586 m

Current weather observation

The report was made 36 minutes ago, at 22:00 UTC
Wind 7 kt from the East
Temperature 15°C
Humidity 63%
Pressure 1019 hPa
Visibility 10 km or more
no clouds below 1500 m and no cumulonimbus

METAR: LBSF 212200Z 10007KT CAVOK 15/08 Q1019 NOSIG

Time: 01:36 (22:36 UTC)

Forecast

The report was made 5 hours and 36 minutes ago, at 17:00 UTC
Forecast valid from 21 at 18 UTC to 22 at 18 UTC
Wind 10 kt from the East/Southeast
Visibility 10 km or more
no clouds below 1500 m and no cumulonimbus
Becoming
from 21 at 20 UTC to 21 at 22 UTC
Wind 4 kt from variable directions

TAF: LBSF 211700Z 2118/2218 12010KT CAVOK BECMG 2120/2122 VRB04KT

Weather observations and forecasts of more than 4000 airports (METAR and TAF reports).

The available stations are represented by yellow and red dots on the map.

Hover mouse over dot to see the name of the station.

Then click to see weather observations and forecasts.

To change the map : click on the green buttons with a black cross to zoom in, on the green button with a dash to zoom out, or on the green arrows for adjacent maps.


METAR-TAF: